sensor_id;sensor_type;location;lat;lon;timestamp;P1;durP1;ratioP1;P2;durP2;ratioP2
5175;SDS011;2607;50.934;6.934;2023-02-04T00:01:28;12.10;;;4.00;;
5175;SDS011;2607;50.934;6.934;2023-02-04T00:03:53;17.77;;;4.00;;
5175;SDS011;2607;50.934;6.934;2023-02-04T00:06:19;12.00;;;3.60;;
5175;SDS011;2607;50.934;6.934;2023-02-04T00:08:44;11.80;;;3.50;;
5175;SDS011;2607;50.934;6.934;2023-02-04T00:11:10;17.70;;;4.50;;
5175;SDS011;2607;50.934;6.934;2023-02-04T00:13:35;15.90;;;3.20;;
5175;SDS011;2607;50.934;6.934;2023-02-04T00:16:01;13.77;;;3.30;;
5175;SDS011;2607;50.934;6.934;2023-02-04T00:18:27;15.33;;;4.43;;
5175;SDS011;2607;50.934;6.934;2023-02-04T00:20:53;14.33;;;3.97;;
5175;SDS011;2607;50.934;6.934;2023-02-04T00:23:18;14.70;;;4.10;;
5175;SDS011;2607;50.934;6.934;2023-02-04T00:25:44;17.27;;;4.23;;
5175;SDS011;2607;50.934;6.934;2023-02-04T00:28:10;8.53;;;3.47;;
5175;SDS011;2607;50.934;6.934;2023-02-04T00:30:35;10.53;;;3.00;;
5175;SDS011;2607;50.934;6.934;2023-02-04T00:33:01;12.50;;;3.70;;
5175;SDS011;2607;50.934;6.934;2023-02-04T00:35:26;11.87;;;2.90;;
5175;SDS011;2607;50.934;6.934;2023-02-04T00:37:52;11.07;;;3.60;;
5175;SDS011;2607;50.934;6.934;2023-02-04T00:40:18;17.80;;;5.60;;
5175;SDS011;2607;50.934;6.934;2023-02-04T00:42:43;24.00;;;3.63;;
5175;SDS011;2607;50.934;6.934;2023-02-04T00:45:09;11.53;;;3.73;;
5175;SDS011;2607;50.934;6.934;2023-02-04T00:47:36;14.23;;;3.83;;
5175;SDS011;2607;50.934;6.934;2023-02-04T00:50:02;17.73;;;4.20;;
5175;SDS011;2607;50.934;6.934;2023-02-04T00:52:28;8.40;;;2.97;;
5175;SDS011;2607;50.934;6.934;2023-02-04T00:54:53;15.03;;;4.70;;
5175;SDS011;2607;50.934;6.934;2023-02-04T00:57:19;14.30;;;3.93;;
5175;SDS011;2607;50.934;6.934;2023-02-04T00:59:44;13.60;;;4.07;;
5175;SDS011;2607;50.934;6.934;2023-02-04T01:02:10;13.47;;;3.20;;
5175;SDS011;2607;50.934;6.934;2023-02-04T01:04:35;20.33;;;3.70;;
5175;SDS011;2607;50.934;6.934;2023-02-04T01:07:01;14.83;;;3.33;;
5175;SDS011;2607;50.934;6.934;2023-02-04T01:09:26;22.30;;;4.07;;
5175;SDS011;2607;50.934;6.934;2023-02-04T01:11:52;7.67;;;2.93;;
5175;SDS011;2607;50.934;6.934;2023-02-04T01:14:19;17.73;;;4.50;;
5175;SDS011;2607;50.934;6.934;2023-02-04T01:16:44;17.80;;;3.60;;
5175;SDS011;2607;50.934;6.934;2023-02-04T01:19:10;18.30;;;5.20;;
5175;SDS011;2607;50.934;6.934;2023-02-04T01:21:36;10.60;;;3.00;;
5175;SDS011;2607;50.934;6.934;2023-02-04T01:24:02;18.40;;;3.63;;
5175;SDS011;2607;50.934;6.934;2023-02-04T01:26:28;15.20;;;3.30;;
5175;SDS011;2607;50.934;6.934;2023-02-04T01:28:54;17.90;;;3.77;;
5175;SDS011;2607;50.934;6.934;2023-02-04T01:31:19;15.90;;;4.20;;
5175;SDS011;2607;50.934;6.934;2023-02-04T01:33:45;10.93;;;3.63;;
5175;SDS011;2607;50.934;6.934;2023-02-04T01:36:10;14.20;;;3.60;;
5175;SDS011;2607;50.934;6.934;2023-02-04T01:38:36;8.60;;;2.77;;
5175;SDS011;2607;50.934;6.934;2023-02-04T01:41:01;21.97;;;4.07;;
5175;SDS011;2607;50.934;6.934;2023-02-04T01:43:28;18.20;;;3.67;;
5175;SDS011;2607;50.934;6.934;2023-02-04T01:45:54;14.57;;;2.97;;
5175;SDS011;2607;50.934;6.934;2023-02-04T01:48:20;16.60;;;4.00;;
5175;SDS011;2607;50.934;6.934;2023-02-04T01:50:50;17.23;;;4.87;;
5175;SDS011;2607;50.934;6.934;2023-02-04T01:53:17;19.20;;;4.20;;
5175;SDS011;2607;50.934;6.934;2023-02-04T01:55:46;12.47;;;3.60;;
5175;SDS011;2607;50.934;6.934;2023-02-04T01:58:12;13.63;;;3.03;;
5175;SDS011;2607;50.934;6.934;2023-02-04T02:00:38;10.10;;;3.50;;
5175;SDS011;2607;50.934;6.934;2023-02-04T02:03:05;10.97;;;3.53;;
5175;SDS011;2607;50.934;6.934;2023-02-04T02:05:45;15.90;;;3.67;;
5175;SDS011;2607;50.934;6.934;2023-02-04T02:08:16;13.80;;;3.70;;
5175;SDS011;2607;50.934;6.934;2023-02-04T02:10:43;19.20;;;3.73;;
5175;SDS011;2607;50.934;6.934;2023-02-04T02:13:14;17.43;;;3.30;;
5175;SDS011;2607;50.934;6.934;2023-02-04T02:15:42;18.53;;;3.70;;
5175;SDS011;2607;50.934;6.934;2023-02-04T02:18:08;15.53;;;2.90;;
5175;SDS011;2607;50.934;6.934;2023-02-04T02:20:34;13.20;;;3.93;;
5175;SDS011;2607;50.934;6.934;2023-02-04T02:25:30;14.90;;;3.93;;
5175;SDS011;2607;50.934;6.934;2023-02-04T02:27:56;14.23;;;3.00;;
5175;SDS011;2607;50.934;6.934;2023-02-04T02:30:22;16.97;;;4.10;;
5175;SDS011;2607;50.934;6.934;2023-02-04T02:32:48;9.33;;;2.90;;
5175;SDS011;2607;50.934;6.934;2023-02-04T02:35:15;13.10;;;4.10;;
5175;SDS011;2607;50.934;6.934;2023-02-04T02:37:41;11.00;;;3.40;;
5175;SDS011;2607;50.934;6.934;2023-02-04T02:40:07;11.77;;;3.30;;
5175;SDS011;2607;50.934;6.934;2023-02-04T02:42:33;18.53;;;3.40;;
5175;SDS011;2607;50.934;6.934;2023-02-04T02:45:07;15.53;;;3.20;;
5175;SDS011;2607;50.934;6.934;2023-02-04T02:47:39;11.43;;;3.30;;
5175;SDS011;2607;50.934;6.934;2023-02-04T02:50:05;12.27;;;3.03;;
5175;SDS011;2607;50.934;6.934;2023-02-04T02:52:35;13.70;;;3.57;;
5175;SDS011;2607;50.934;6.934;2023-02-04T02:55:00;18.80;;;3.60;;
5175;SDS011;2607;50.934;6.934;2023-02-04T02:57:26;18.13;;;3.70;;
5175;SDS011;2607;50.934;6.934;2023-02-04T02:59:51;18.97;;;3.27;;
5175;SDS011;2607;50.934;6.934;2023-02-04T03:02:18;10.63;;;3.00;;
5175;SDS011;2607;50.934;6.934;2023-02-04T03:04:48;18.37;;;3.30;;
5175;SDS011;2607;50.934;6.934;2023-02-04T03:07:17;11.30;;;2.77;;
5175;SDS011;2607;50.934;6.934;2023-02-04T03:09:44;19.67;;;3.53;;
5175;SDS011;2607;50.934;6.934;2023-02-04T03:12:10;9.63;;;3.33;;
5175;SDS011;2607;50.934;6.934;2023-02-04T03:14:35;11.20;;;3.17;;
5175;SDS011;2607;50.934;6.934;2023-02-04T03:17:03;14.83;;;3.30;;
5175;SDS011;2607;50.934;6.934;2023-02-04T03:19:31;12.13;;;2.67;;
5175;SDS011;2607;50.934;6.934;2023-02-04T03:21:57;10.43;;;2.77;;
5175;SDS011;2607;50.934;6.934;2023-02-04T03:24:24;13.67;;;3.00;;
5175;SDS011;2607;50.934;6.934;2023-02-04T03:26:49;10.20;;;3.37;;
5175;SDS011;2607;50.934;6.934;2023-02-04T03:29:15;9.73;;;3.13;;
5175;SDS011;2607;50.934;6.934;2023-02-04T03:31:41;13.23;;;3.13;;
5175;SDS011;2607;50.934;6.934;2023-02-04T03:34:06;8.50;;;3.23;;
5175;SDS011;2607;50.934;6.934;2023-02-04T03:36:32;14.53;;;3.30;;
5175;SDS011;2607;50.934;6.934;2023-02-04T03:38:57;8.03;;;2.53;;
5175;SDS011;2607;50.934;6.934;2023-02-04T03:41:23;11.20;;;3.43;;
5175;SDS011;2607;50.934;6.934;2023-02-04T03:43:48;12.40;;;3.23;;
5175;SDS011;2607;50.934;6.934;2023-02-04T03:46:14;9.53;;;3.33;;
5175;SDS011;2607;50.934;6.934;2023-02-04T03:48:40;11.20;;;2.63;;
5175;SDS011;2607;50.934;6.934;2023-02-04T03:51:05;13.37;;;3.20;;
5175;SDS011;2607;50.934;6.934;2023-02-04T03:53:31;14.23;;;3.70;;
5175;SDS011;2607;50.934;6.934;2023-02-04T03:55:57;14.10;;;2.97;;
5175;SDS011;2607;50.934;6.934;2023-02-04T03:58:22;13.53;;;4.40;;
5175;SDS011;2607;50.934;6.934;2023-02-04T04:00:48;11.37;;;3.40;;
5175;SDS011;2607;50.934;6.934;2023-02-04T04:03:14;9.17;;;3.30;;
5175;SDS011;2607;50.934;6.934;2023-02-04T04:05:39;12.87;;;3.60;;
5175;SDS011;2607;50.934;6.934;2023-02-04T04:08:05;15.23;;;3.57;;
5175;SDS011;2607;50.934;6.934;2023-02-04T04:10:31;13.80;;;3.27;;
5175;SDS011;2607;50.934;6.934;2023-02-04T04:12:56;19.73;;;3.37;;
5175;SDS011;2607;50.934;6.934;2023-02-04T04:15:23;10.40;;;4.07;;
5175;SDS011;2607;50.934;6.934;2023-02-04T04:17:48;20.80;;;4.70;;
5175;SDS011;2607;50.934;6.934;2023-02-04T04:20:14;17.93;;;4.37;;
5175;SDS011;2607;50.934;6.934;2023-02-04T04:22:40;9.10;;;3.23;;
5175;SDS011;2607;50.934;6.934;2023-02-04T04:25:06;14.17;;;4.70;;
5175;SDS011;2607;50.934;6.934;2023-02-04T04:27:32;11.10;;;4.57;;
5175;SDS011;2607;50.934;6.934;2023-02-04T04:29:58;18.30;;;4.10;;
5175;SDS011;2607;50.934;6.934;2023-02-04T04:32:23;11.53;;;2.70;;
5175;SDS011;2607;50.934;6.934;2023-02-04T04:34:49;13.13;;;3.43;;
5175;SDS011;2607;50.934;6.934;2023-02-04T04:37:14;9.23;;;3.30;;
5175;SDS011;2607;50.934;6.934;2023-02-04T04:39:40;8.67;;;3.50;;
5175;SDS011;2607;50.934;6.934;2023-02-04T04:42:05;12.67;;;4.47;;
5175;SDS011;2607;50.934;6.934;2023-02-04T04:44:32;9.57;;;3.43;;
5175;SDS011;2607;50.934;6.934;2023-02-04T04:46:58;21.40;;;3.90;;
5175;SDS011;2607;50.934;6.934;2023-02-04T04:49:23;15.77;;;3.43;;
5175;SDS011;2607;50.934;6.934;2023-02-04T04:51:49;19.20;;;4.10;;
5175;SDS011;2607;50.934;6.934;2023-02-04T04:54:14;11.80;;;2.90;;
5175;SDS011;2607;50.934;6.934;2023-02-04T04:56:40;10.40;;;3.97;;
5175;SDS011;2607;50.934;6.934;2023-02-04T04:59:05;14.33;;;3.50;;
5175;SDS011;2607;50.934;6.934;2023-02-04T05:01:31;13.43;;;4.40;;
5175;SDS011;2607;50.934;6.934;2023-02-04T05:03:57;17.73;;;3.50;;
5175;SDS011;2607;50.934;6.934;2023-02-04T05:06:22;15.57;;;3.33;;
5175;SDS011;2607;50.934;6.934;2023-02-04T05:08:52;12.60;;;3.90;;
5175;SDS011;2607;50.934;6.934;2023-02-04T05:11:18;11.07;;;3.87;;
5175;SDS011;2607;50.934;6.934;2023-02-04T05:13:44;12.70;;;3.70;;
5175;SDS011;2607;50.934;6.934;2023-02-04T05:16:10;12.73;;;3.60;;
5175;SDS011;2607;50.934;6.934;2023-02-04T05:18:39;11.00;;;2.70;;
5175;SDS011;2607;50.934;6.934;2023-02-04T05:21:05;14.40;;;4.10;;
5175;SDS011;2607;50.934;6.934;2023-02-04T05:23:31;12.47;;;4.20;;
5175;SDS011;2607;50.934;6.934;2023-02-04T05:25:57;19.40;;;4.00;;
5175;SDS011;2607;50.934;6.934;2023-02-04T05:28:23;11.90;;;3.27;;
5175;SDS011;2607;50.934;6.934;2023-02-04T05:30:49;9.13;;;3.53;;
5175;SDS011;2607;50.934;6.934;2023-02-04T05:33:14;18.47;;;5.00;;
5175;SDS011;2607;50.934;6.934;2023-02-04T05:35:40;22.33;;;4.27;;
5175;SDS011;2607;50.934;6.934;2023-02-04T05:38:05;18.77;;;3.43;;
5175;SDS011;2607;50.934;6.934;2023-02-04T05:40:31;15.27;;;4.87;;
5175;SDS011;2607;50.934;6.934;2023-02-04T05:42:56;10.63;;;4.00;;
5175;SDS011;2607;50.934;6.934;2023-02-04T05:45:22;11.30;;;3.07;;
5175;SDS011;2607;50.934;6.934;2023-02-04T05:47:47;15.87;;;3.00;;
5175;SDS011;2607;50.934;6.934;2023-02-04T05:50:13;11.93;;;3.53;;
5175;SDS011;2607;50.934;6.934;2023-02-04T05:52:38;18.67;;;3.50;;
5175;SDS011;2607;50.934;6.934;2023-02-04T05:55:05;13.17;;;3.60;;
5175;SDS011;2607;50.934;6.934;2023-02-04T05:57:31;11.63;;;3.07;;
5175;SDS011;2607;50.934;6.934;2023-02-04T05:59:57;13.80;;;3.67;;
5175;SDS011;2607;50.934;6.934;2023-02-04T06:02:22;13.23;;;2.93;;
5175;SDS011;2607;50.934;6.934;2023-02-04T06:04:48;16.50;;;3.80;;
5175;SDS011;2607;50.934;6.934;2023-02-04T06:07:14;8.90;;;3.50;;
5175;SDS011;2607;50.934;6.934;2023-02-04T06:09:39;22.87;;;4.07;;
5175;SDS011;2607;50.934;6.934;2023-02-04T06:12:05;17.13;;;2.63;;
5175;SDS011;2607;50.934;6.934;2023-02-04T06:14:31;15.40;;;4.60;;
5175;SDS011;2607;50.934;6.934;2023-02-04T06:16:56;12.27;;;4.77;;
5175;SDS011;2607;50.934;6.934;2023-02-04T06:19:23;13.17;;;3.93;;
5175;SDS011;2607;50.934;6.934;2023-02-04T06:21:49;17.37;;;4.13;;
5175;SDS011;2607;50.934;6.934;2023-02-04T06:24:14;12.33;;;3.83;;
5175;SDS011;2607;50.934;6.934;2023-02-04T06:26:40;12.27;;;3.73;;
5175;SDS011;2607;50.934;6.934;2023-02-04T06:29:05;14.93;;;3.30;;
5175;SDS011;2607;50.934;6.934;2023-02-04T06:31:31;15.00;;;5.27;;
5175;SDS011;2607;50.934;6.934;2023-02-04T06:33:57;15.23;;;5.27;;
5175;SDS011;2607;50.934;6.934;2023-02-04T06:36:22;13.67;;;3.00;;
5175;SDS011;2607;50.934;6.934;2023-02-04T06:38:48;9.43;;;4.03;;
5175;SDS011;2607;50.934;6.934;2023-02-04T06:41:13;9.27;;;3.80;;
5175;SDS011;2607;50.934;6.934;2023-02-04T06:43:39;13.13;;;4.57;;
5175;SDS011;2607;50.934;6.934;2023-02-04T06:46:04;14.07;;;3.90;;
5175;SDS011;2607;50.934;6.934;2023-02-04T06:48:30;19.60;;;3.87;;
5175;SDS011;2607;50.934;6.934;2023-02-04T06:50:55;12.20;;;3.73;;
5175;SDS011;2607;50.934;6.934;2023-02-04T06:53:21;12.00;;;3.57;;
5175;SDS011;2607;50.934;6.934;2023-02-04T06:55:46;13.77;;;3.33;;
5175;SDS011;2607;50.934;6.934;2023-02-04T06:58:12;14.50;;;4.13;;
5175;SDS011;2607;50.934;6.934;2023-02-04T07:00:38;10.30;;;3.23;;
5175;SDS011;2607;50.934;6.934;2023-02-04T07:03:03;17.90;;;4.67;;
5175;SDS011;2607;50.934;6.934;2023-02-04T07:05:31;20.30;;;4.40;;
5175;SDS011;2607;50.934;6.934;2023-02-04T07:07:57;10.33;;;3.93;;
5175;SDS011;2607;50.934;6.934;2023-02-04T07:10:26;14.00;;;4.20;;
5175;SDS011;2607;50.934;6.934;2023-02-04T07:12:52;17.53;;;4.23;;
5175;SDS011;2607;50.934;6.934;2023-02-04T07:15:18;18.93;;;4.90;;
5175;SDS011;2607;50.934;6.934;2023-02-04T07:17:43;14.23;;;4.27;;
5175;SDS011;2607;50.934;6.934;2023-02-04T07:20:09;13.97;;;4.77;;
5175;SDS011;2607;50.934;6.934;2023-02-04T07:22:35;25.20;;;6.57;;
5175;SDS011;2607;50.934;6.934;2023-02-04T07:25:01;12.30;;;3.90;;
5175;SDS011;2607;50.934;6.934;2023-02-04T07:27:27;13.67;;;4.20;;
5175;SDS011;2607;50.934;6.934;2023-02-04T07:29:52;14.43;;;4.27;;
5175;SDS011;2607;50.934;6.934;2023-02-04T07:32:18;14.70;;;4.00;;
5175;SDS011;2607;50.934;6.934;2023-02-04T07:34:43;15.13;;;5.70;;
5175;SDS011;2607;50.934;6.934;2023-02-04T07:37:09;11.80;;;3.77;;
5175;SDS011;2607;50.934;6.934;2023-02-04T07:39:34;16.80;;;4.53;;
5175;SDS011;2607;50.934;6.934;2023-02-04T07:42:00;19.20;;;5.00;;
5175;SDS011;2607;50.934;6.934;2023-02-04T07:44:25;20.33;;;6.10;;
5175;SDS011;2607;50.934;6.934;2023-02-04T07:46:51;23.23;;;5.27;;
5175;SDS011;2607;50.934;6.934;2023-02-04T07:49:16;21.10;;;5.17;;
5175;SDS011;2607;50.934;6.934;2023-02-04T07:51:42;18.00;;;5.30;;
5175;SDS011;2607;50.934;6.934;2023-02-04T07:54:08;20.30;;;4.60;;
5175;SDS011;2607;50.934;6.934;2023-02-04T07:56:33;12.23;;;4.40;;
5175;SDS011;2607;50.934;6.934;2023-02-04T07:58:59;15.87;;;4.17;;
5175;SDS011;2607;50.934;6.934;2023-02-04T08:01:24;24.93;;;5.60;;
5175;SDS011;2607;50.934;6.934;2023-02-04T08:03:50;18.53;;;5.73;;
5175;SDS011;2607;50.934;6.934;2023-02-04T08:06:15;26.17;;;5.17;;
5175;SDS011;2607;50.934;6.934;2023-02-04T08:08:41;16.50;;;4.40;;
5175;SDS011;2607;50.934;6.934;2023-02-04T08:11:06;26.70;;;9.00;;
5175;SDS011;2607;50.934;6.934;2023-02-04T08:13:32;19.17;;;5.40;;
5175;SDS011;2607;50.934;6.934;2023-02-04T08:15:57;20.80;;;6.20;;
5175;SDS011;2607;50.934;6.934;2023-02-04T08:18:23;23.57;;;5.30;;
5175;SDS011;2607;50.934;6.934;2023-02-04T08:20:49;21.27;;;6.10;;
5175;SDS011;2607;50.934;6.934;2023-02-04T08:23:15;21.83;;;6.37;;
5175;SDS011;2607;50.934;6.934;2023-02-04T08:25:41;21.17;;;5.33;;
5175;SDS011;2607;50.934;6.934;2023-02-04T08:28:09;12.90;;;4.83;;
5175;SDS011;2607;50.934;6.934;2023-02-04T08:30:34;28.40;;;5.00;;
5175;SDS011;2607;50.934;6.934;2023-02-04T08:33:00;20.73;;;5.17;;
5175;SDS011;2607;50.934;6.934;2023-02-04T08:35:25;19.33;;;5.00;;
5175;SDS011;2607;50.934;6.934;2023-02-04T08:37:51;21.50;;;6.27;;
5175;SDS011;2607;50.934;6.934;2023-02-04T08:40:17;14.07;;;4.33;;
5175;SDS011;2607;50.934;6.934;2023-02-04T08:42:43;13.67;;;4.83;;
5175;SDS011;2607;50.934;6.934;2023-02-04T08:45:08;14.43;;;6.13;;
5175;SDS011;2607;50.934;6.934;2023-02-04T08:47:34;27.03;;;5.43;;
5175;SDS011;2607;50.934;6.934;2023-02-04T08:49:59;20.63;;;5.13;;
5175;SDS011;2607;50.934;6.934;2023-02-04T08:52:25;19.90;;;5.77;;
5175;SDS011;2607;50.934;6.934;2023-02-04T08:54:50;18.77;;;4.63;;
5175;SDS011;2607;50.934;6.934;2023-02-04T08:57:16;18.27;;;5.20;;
5175;SDS011;2607;50.934;6.934;2023-02-04T08:59:41;20.40;;;4.90;;
5175;SDS011;2607;50.934;6.934;2023-02-04T09:02:08;21.43;;;6.50;;
5175;SDS011;2607;50.934;6.934;2023-02-04T09:04:34;19.60;;;6.33;;
5175;SDS011;2607;50.934;6.934;2023-02-04T09:06:59;20.20;;;5.90;;
5175;SDS011;2607;50.934;6.934;2023-02-04T09:09:25;24.67;;;5.37;;
5175;SDS011;2607;50.934;6.934;2023-02-04T09:11:50;17.93;;;5.67;;
5175;SDS011;2607;50.934;6.934;2023-02-04T09:14:16;24.37;;;6.50;;
5175;SDS011;2607;50.934;6.934;2023-02-04T09:16:41;15.00;;;4.20;;
5175;SDS011;2607;50.934;6.934;2023-02-04T09:19:07;17.33;;;5.03;;
5175;SDS011;2607;50.934;6.934;2023-02-04T09:21:36;14.20;;;4.17;;
5175;SDS011;2607;50.934;6.934;2023-02-04T09:24:02;17.77;;;5.00;;
5175;SDS011;2607;50.934;6.934;2023-02-04T09:26:27;26.10;;;6.03;;
5175;SDS011;2607;50.934;6.934;2023-02-04T09:28:53;25.73;;;5.30;;
5175;SDS011;2607;50.934;6.934;2023-02-04T09:31:18;20.20;;;6.00;;
5175;SDS011;2607;50.934;6.934;2023-02-04T09:33:44;18.50;;;4.97;;
5175;SDS011;2607;50.934;6.934;2023-02-04T09:36:10;16.67;;;4.80;;
5175;SDS011;2607;50.934;6.934;2023-02-04T09:38:35;20.30;;;5.43;;
5175;SDS011;2607;50.934;6.934;2023-02-04T09:41:02;15.43;;;5.43;;
5175;SDS011;2607;50.934;6.934;2023-02-04T09:43:31;22.63;;;5.47;;
5175;SDS011;2607;50.934;6.934;2023-02-04T09:46:03;20.97;;;5.80;;
5175;SDS011;2607;50.934;6.934;2023-02-04T09:48:30;19.37;;;5.97;;
5175;SDS011;2607;50.934;6.934;2023-02-04T09:51:06;23.63;;;5.47;;
5175;SDS011;2607;50.934;6.934;2023-02-04T09:53:32;16.43;;;4.93;;
5175;SDS011;2607;50.934;6.934;2023-02-04T09:56:00;21.40;;;6.53;;
5175;SDS011;2607;50.934;6.934;2023-02-04T09:58:27;19.60;;;5.10;;
5175;SDS011;2607;50.934;6.934;2023-02-04T10:01:00;14.37;;;5.50;;
5175;SDS011;2607;50.934;6.934;2023-02-04T10:03:35;21.07;;;6.17;;
5175;SDS011;2607;50.934;6.934;2023-02-04T10:06:03;22.83;;;6.23;;
5175;SDS011;2607;50.934;6.934;2023-02-04T10:08:30;30.17;;;7.23;;
5175;SDS011;2607;50.934;6.934;2023-02-04T10:10:57;22.43;;;6.00;;
5175;SDS011;2607;50.934;6.934;2023-02-04T10:13:25;28.67;;;7.97;;
5175;SDS011;2607;50.934;6.934;2023-02-04T10:15:56;23.83;;;7.13;;
5175;SDS011;2607;50.934;6.934;2023-02-04T10:18:28;25.40;;;7.53;;
5175;SDS011;2607;50.934;6.934;2023-02-04T10:20:56;35.60;;;8.73;;
5175;SDS011;2607;50.934;6.934;2023-02-04T10:23:35;21.10;;;7.97;;
5175;SDS011;2607;50.934;6.934;2023-02-04T10:26:02;23.70;;;8.60;;
5175;SDS011;2607;50.934;6.934;2023-02-04T10:28:34;24.67;;;7.67;;
5175;SDS011;2607;50.934;6.934;2023-02-04T10:31:00;23.20;;;8.00;;
5175;SDS011;2607;50.934;6.934;2023-02-04T10:33:26;22.97;;;8.90;;
5175;SDS011;2607;50.934;6.934;2023-02-04T10:35:52;26.40;;;10.37;;
5175;SDS011;2607;50.934;6.934;2023-02-04T10:38:19;22.93;;;9.63;;
5175;SDS011;2607;50.934;6.934;2023-02-04T10:40:45;30.20;;;9.20;;
5175;SDS011;2607;50.934;6.934;2023-02-04T10:43:19;28.70;;;9.50;;
5175;SDS011;2607;50.934;6.934;2023-02-04T10:45:47;29.70;;;9.73;;
5175;SDS011;2607;50.934;6.934;2023-02-04T10:48:23;28.00;;;10.60;;
5175;SDS011;2607;50.934;6.934;2023-02-04T10:50:50;23.37;;;9.63;;
5175;SDS011;2607;50.934;6.934;2023-02-04T10:53:16;27.47;;;10.37;;
5175;SDS011;2607;50.934;6.934;2023-02-04T10:56:03;21.80;;;8.80;;
5175;SDS011;2607;50.934;6.934;2023-02-04T10:58:30;24.17;;;9.70;;
5175;SDS011;2607;50.934;6.934;2023-02-04T11:00:56;29.40;;;9.27;;
5175;SDS011;2607;50.934;6.934;2023-02-04T11:03:25;28.80;;;10.33;;
5175;SDS011;2607;50.934;6.934;2023-02-04T11:05:55;25.27;;;9.50;;
5175;SDS011;2607;50.934;6.934;2023-02-04T11:08:23;20.77;;;8.80;;
5175;SDS011;2607;50.934;6.934;2023-02-04T11:10:57;26.83;;;9.70;;
5175;SDS011;2607;50.934;6.934;2023-02-04T11:16:08;31.97;;;9.70;;
5175;SDS011;2607;50.934;6.934;2023-02-04T11:26:45;30.40;;;10.37;;
5175;SDS011;2607;50.934;6.934;2023-02-04T11:31:42;24.97;;;10.13;;
5175;SDS011;2607;50.934;6.934;2023-02-04T11:37:40;24.13;;;8.83;;
5175;SDS011;2607;50.934;6.934;2023-02-04T11:39:38;20.50;;;8.90;;
5175;SDS011;2607;50.934;6.934;2023-02-04T11:42:13;24.47;;;9.00;;
5175;SDS011;2607;50.934;6.934;2023-02-04T11:44:46;25.77;;;9.50;;
5175;SDS011;2607;50.934;6.934;2023-02-04T11:47:16;25.70;;;9.63;;
5175;SDS011;2607;50.934;6.934;2023-02-04T11:49:42;27.73;;;10.03;;
5175;SDS011;2607;50.934;6.934;2023-02-04T11:52:12;24.37;;;8.87;;
5175;SDS011;2607;50.934;6.934;2023-02-04T11:54:38;21.43;;;10.23;;
5175;SDS011;2607;50.934;6.934;2023-02-04T11:57:04;14.40;;;8.53;;
5175;SDS011;2607;50.934;6.934;2023-02-04T11:59:30;26.17;;;8.83;;
5175;SDS011;2607;50.934;6.934;2023-02-04T12:02:02;22.27;;;8.67;;
5175;SDS011;2607;50.934;6.934;2023-02-04T12:04:29;23.80;;;8.00;;
5175;SDS011;2607;50.934;6.934;2023-02-04T12:06:56;24.20;;;9.27;;
5175;SDS011;2607;50.934;6.934;2023-02-04T12:09:24;23.87;;;8.70;;
5175;SDS011;2607;50.934;6.934;2023-02-04T12:11:51;24.63;;;9.67;;
5175;SDS011;2607;50.934;6.934;2023-02-04T12:14:18;20.33;;;8.97;;
5175;SDS011;2607;50.934;6.934;2023-02-04T12:16:47;23.87;;;8.20;;
5175;SDS011;2607;50.934;6.934;2023-02-04T12:19:18;27.23;;;8.73;;
5175;SDS011;2607;50.934;6.934;2023-02-04T12:21:43;16.83;;;8.07;;
5175;SDS011;2607;50.934;6.934;2023-02-04T12:24:09;20.73;;;7.67;;
5175;SDS011;2607;50.934;6.934;2023-02-04T12:26:34;18.97;;;7.60;;
5175;SDS011;2607;50.934;6.934;2023-02-04T12:29:00;20.00;;;7.20;;
5175;SDS011;2607;50.934;6.934;2023-02-04T12:31:30;27.23;;;7.73;;
5175;SDS011;2607;50.934;6.934;2023-02-04T12:33:57;20.50;;;7.43;;
5175;SDS011;2607;50.934;6.934;2023-02-04T12:36:23;21.90;;;7.70;;
5175;SDS011;2607;50.934;6.934;2023-02-04T12:38:51;23.87;;;8.37;;
5175;SDS011;2607;50.934;6.934;2023-02-04T12:41:22;17.33;;;7.87;;
5175;SDS011;2607;50.934;6.934;2023-02-04T12:43:48;23.90;;;8.20;;
5175;SDS011;2607;50.934;6.934;2023-02-04T12:46:14;15.63;;;6.70;;
5175;SDS011;2607;50.934;6.934;2023-02-04T12:48:40;16.43;;;7.00;;
5175;SDS011;2607;50.934;6.934;2023-02-04T12:51:06;26.40;;;6.87;;
5175;SDS011;2607;50.934;6.934;2023-02-04T12:53:32;17.40;;;7.60;;
5175;SDS011;2607;50.934;6.934;2023-02-04T12:55:58;17.80;;;7.70;;
5175;SDS011;2607;50.934;6.934;2023-02-04T12:58:23;28.40;;;8.30;;
5175;SDS011;2607;50.934;6.934;2023-02-04T13:00:49;19.40;;;7.60;;
5175;SDS011;2607;50.934;6.934;2023-02-04T13:03:14;26.20;;;7.27;;
5175;SDS011;2607;50.934;6.934;2023-02-04T13:05:40;20.60;;;7.20;;
5175;SDS011;2607;50.934;6.934;2023-02-04T13:08:05;25.17;;;7.90;;
5175;SDS011;2607;50.934;6.934;2023-02-04T13:10:31;21.67;;;7.47;;
5175;SDS011;2607;50.934;6.934;2023-02-04T13:12:57;23.20;;;7.90;;
5175;SDS011;2607;50.934;6.934;2023-02-04T13:15:24;20.20;;;7.00;;
5175;SDS011;2607;50.934;6.934;2023-02-04T13:17:50;17.60;;;6.63;;
5175;SDS011;2607;50.934;6.934;2023-02-04T13:20:15;17.40;;;7.00;;
5175;SDS011;2607;50.934;6.934;2023-02-04T13:22:41;24.77;;;7.80;;
5175;SDS011;2607;50.934;6.934;2023-02-04T13:25:07;23.60;;;7.00;;
5175;SDS011;2607;50.934;6.934;2023-02-04T13:27:34;12.57;;;6.33;;
5175;SDS011;2607;50.934;6.934;2023-02-04T13:30:00;18.07;;;6.53;;
5175;SDS011;2607;50.934;6.934;2023-02-04T13:32:25;21.10;;;7.30;;
5175;SDS011;2607;50.934;6.934;2023-02-04T13:34:51;14.80;;;5.90;;
5175;SDS011;2607;50.934;6.934;2023-02-04T13:37:16;19.87;;;5.73;;
5175;SDS011;2607;50.934;6.934;2023-02-04T13:39:42;16.93;;;5.53;;
5175;SDS011;2607;50.934;6.934;2023-02-04T13:42:07;20.50;;;6.73;;
5175;SDS011;2607;50.934;6.934;2023-02-04T13:44:33;21.37;;;6.07;;
5175;SDS011;2607;50.934;6.934;2023-02-04T13:46:59;25.13;;;6.07;;
5175;SDS011;2607;50.934;6.934;2023-02-04T13:49:24;13.10;;;5.37;;
5175;SDS011;2607;50.934;6.934;2023-02-04T13:51:50;13.87;;;5.23;;
5175;SDS011;2607;50.934;6.934;2023-02-04T13:54:15;20.50;;;5.50;;
5175;SDS011;2607;50.934;6.934;2023-02-04T13:56:41;19.33;;;5.30;;
5175;SDS011;2607;50.934;6.934;2023-02-04T13:59:06;21.33;;;6.80;;
5175;SDS011;2607;50.934;6.934;2023-02-04T14:01:32;15.00;;;7.20;;
5175;SDS011;2607;50.934;6.934;2023-02-04T14:03:58;12.83;;;5.53;;
5175;SDS011;2607;50.934;6.934;2023-02-04T14:06:23;17.50;;;6.07;;
5175;SDS011;2607;50.934;6.934;2023-02-04T14:08:57;23.77;;;5.97;;
5175;SDS011;2607;50.934;6.934;2023-02-04T14:11:23;13.93;;;7.07;;
5175;SDS011;2607;50.934;6.934;2023-02-04T14:13:49;22.40;;;6.20;;
5175;SDS011;2607;50.934;6.934;2023-02-04T14:16:14;18.77;;;6.40;;
5175;SDS011;2607;50.934;6.934;2023-02-04T14:18:40;18.33;;;5.73;;
5175;SDS011;2607;50.934;6.934;2023-02-04T14:21:06;18.97;;;7.30;;
5175;SDS011;2607;50.934;6.934;2023-02-04T14:23:31;21.40;;;8.10;;
5175;SDS011;2607;50.934;6.934;2023-02-04T14:25:57;18.43;;;7.50;;
5175;SDS011;2607;50.934;6.934;2023-02-04T14:28:23;27.30;;;5.87;;
5175;SDS011;2607;50.934;6.934;2023-02-04T14:30:48;15.70;;;4.87;;
5175;SDS011;2607;50.934;6.934;2023-02-04T14:33:14;16.90;;;5.07;;
5175;SDS011;2607;50.934;6.934;2023-02-04T14:35:42;17.57;;;5.23;;
5175;SDS011;2607;50.934;6.934;2023-02-04T14:38:08;16.40;;;4.70;;
5175;SDS011;2607;50.934;6.934;2023-02-04T14:40:35;13.13;;;4.40;;
5175;SDS011;2607;50.934;6.934;2023-02-04T14:43:01;15.97;;;4.83;;
5175;SDS011;2607;50.934;6.934;2023-02-04T14:45:27;16.50;;;4.97;;
5175;SDS011;2607;50.934;6.934;2023-02-04T14:47:53;23.67;;;5.57;;
5175;SDS011;2607;50.934;6.934;2023-02-04T14:50:21;17.53;;;5.20;;
5175;SDS011;2607;50.934;6.934;2023-02-04T14:52:51;13.03;;;4.57;;
5175;SDS011;2607;50.934;6.934;2023-02-04T14:55:17;21.17;;;5.20;;
5175;SDS011;2607;50.934;6.934;2023-02-04T14:57:42;20.17;;;5.60;;
5175;SDS011;2607;50.934;6.934;2023-02-04T15:00:08;19.80;;;5.37;;
5175;SDS011;2607;50.934;6.934;2023-02-04T15:02:34;17.03;;;4.63;;
5175;SDS011;2607;50.934;6.934;2023-02-04T15:05:00;16.97;;;5.40;;
5175;SDS011;2607;50.934;6.934;2023-02-04T15:07:26;16.03;;;5.10;;
5175;SDS011;2607;50.934;6.934;2023-02-04T15:09:52;14.77;;;4.50;;
5175;SDS011;2607;50.934;6.934;2023-02-04T15:12:17;15.97;;;4.17;;
5175;SDS011;2607;50.934;6.934;2023-02-04T15:14:43;17.30;;;4.87;;
5175;SDS011;2607;50.934;6.934;2023-02-04T15:17:08;18.67;;;4.57;;